Terminal Aerodrome Forecast
Issued by NWS Charleston, WV

Current Version | Previous Version | Graphics & Text | Print | Product List | Glossary On
Versions: 1 2 3 4 5 6 7 8 9 10 11 12 13 14 15 16 17 18 19
000
FTUS41 KRLX 242200 AAA
TAFCRW
TAF AMD
KCRW 242216Z 2422/2518 18011KT P6SM BKN040
     FM242315 24018G40KT 6SM SHRA BR BKN035
     FM250000 24012G25KT P6SM BKN035
     FM250400 24010G20KT P6SM OVC025
     FM250600 24008G13KT P6SM OVC015
     FM251400 28010G15KT P6SM OVC025
     FM251700 28010G15KT P6SM OVC035=

USA.gov is the U.S. government's official web portal to all federal, state and local government web resources and services.